Time;durP1;ratioP1;P1;durP2;ratioP2;P2;SDS_P1;SDS_P2;PMS_P1;PMS_P2;Temp;Humidity;BMP_temperature;BMP_pressure;BME280_temperature;BME280_humidity;BME280_pressure;Samples;Min_cycle;Max_cycle;Signal;HPM_P1;HPM_P2
2021/07/26 00:00:34;;;;;;;;;9.75;9.75;;;;;20.30;100.00;100761.22;5080143;27;45395;-73
2021/07/26 00:03:00;;;;;;;;;10.50;9.50;;;;;20.29;100.00;100757.69;5098211;27;45428;-70
2021/07/26 00:05:25;;;;;;;;;10.50;10.00;;;;;20.21;100.00;100753.78;5096619;27;45383;-74
2021/07/26 00:07:50;;;;;;;;;11.75;10.25;;;;;20.16;100.00;100746.91;5091842;27;45449;-72
2021/07/26 00:10:16;;;;;;;;;9.75;9.75;;;;;20.20;100.00;100755.56;5098632;27;45384;-71
2021/07/26 00:12:41;;;;;;;;;10.75;10.75;;;;;20.18;100.00;100762.75;5097879;27;45500;-72
2021/07/26 00:15:07;;;;;;;;;11.50;10.25;;;;;20.16;100.00;100762.84;5097984;27;45366;-72
2021/07/26 00:17:33;;;;;;;;;14.75;11.75;;;;;20.06;100.00;100751.00;5097575;27;45352;-72
2021/07/26 00:19:58;;;;;;;;;9.25;9.25;;;;;20.12;100.00;100769.22;5098252;27;45362;-72
2021/07/26 00:22:23;;;;;;;;;12.00;11.00;;;;;20.04;100.00;100758.16;5097781;27;46446;-74
2021/07/26 00:24:49;;;;;;;;;11.75;10.00;;;;;20.09;100.00;100769.38;5097584;27;45341;-71
2021/07/26 00:27:14;;;;;;;;;10.00;10.00;;;;;20.04;100.00;100768.78;5097943;27;45318;-71
2021/07/26 00:29:39;;;;;;;;;12.50;11.00;;;;;20.01;100.00;100766.28;5097228;27;45508;-71
2021/07/26 00:32:05;;;;;;;;;11.00;10.25;;;;;20.00;100.00;100769.03;5097476;27;46057;-71
2021/07/26 00:34:30;;;;;;;;;11.75;11.50;;;;;20.01;100.00;100762.78;5096601;27;45474;-70
2021/07/26 00:36:58;;;;;;;;;11.75;10.75;;;;;19.97;100.00;100759.44;5097429;27;45407;-72
2021/07/26 00:39:28;;;;;;;;;10.00;9.25;;;;;19.98;100.00;100761.16;5097369;27;45475;-70
2021/07/26 00:41:55;;;;;;;;;11.50;11.25;;;;;20.00;100.00;100766.38;5082219;27;47157;-71
2021/07/26 00:44:22;;;;;;;;;14.75;12.25;;;;;20.00;100.00;100756.63;5085131;27;45699;-72
2021/07/26 00:46:49;;;;;;;;;15.75;14.25;;;;;19.95;100.00;100756.03;5096108;27;45362;-71
2021/07/26 00:49:16;;;;;;;;;13.00;12.50;;;;;19.95;100.00;100758.66;5097238;27;45526;-73
2021/07/26 00:51:46;;;;;;;;;18.75;16.75;;;;;19.95;100.00;100765.75;5097051;27;45356;-72
2021/07/26 00:54:13;;;;;;;;;16.50;14.75;;;;;19.87;100.00;100752.91;5097313;27;45414;-72
2021/07/26 00:56:39;;;;;;;;;15.25;14.25;;;;;19.87;100.00;100761.69;5096989;27;45597;-72
2021/07/26 00:59:05;;;;;;;;;17.50;16.00;;;;;19.88;100.00;100754.59;5096035;27;45490;-72
2021/07/26 01:01:31;;;;;;;;;19.50;16.50;;;;;19.83;100.00;100746.06;5096745;27;46172;-72
2021/07/26 01:03:56;;;;;;;;;20.75;19.50;;;;;19.77;100.00;100755.19;5096928;27;45429;-75
2021/07/26 01:06:21;;;;;;;;;22.50;20.25;;;;;19.77;100.00;100763.13;5097398;27;45615;-76
2021/07/26 01:08:48;;;;;;;;;24.25;19.25;;;;;19.66;100.00;100746.91;5097350;27;45655;-71
2021/07/26 01:11:14;;;;;;;;;18.75;17.75;;;;;19.67;100.00;100767.19;5096569;27;45542;-72
2021/07/26 01:13:39;;;;;;;;;28.00;26.50;;;;;19.54;100.00;100743.13;5096992;27;45410;-72
2021/07/26 01:16:05;;;;;;;;;35.25;31.50;;;;;19.54;100.00;100758.16;5097208;27;45498;-72
2021/07/26 01:18:34;;;;;;;;;32.75;29.00;;;;;19.52;100.00;100758.22;5097278;27;45466;-71
2021/07/26 01:21:08;;;;;;;;;33.50;29.50;;;;;19.53;100.00;100764.38;5081852;27;46547;-72
2021/07/26 01:23:54;;;;;;;;;22.00;19.50;;;;;19.48;100.00;100764.59;5085680;27;45887;-71
2021/07/26 01:26:23;;;;;;;;;27.50;25.25;;;;;19.46;100.00;100768.25;5078052;27;45443;-72
2021/07/26 01:28:50;;;;;;;;;21.00;18.00;;;;;19.38;100.00;100757.19;5076549;27;45357;-71
2021/07/26 01:31:16;;;;;;;;;25.50;23.00;;;;;19.37;100.00;100761.63;5086760;27;45749;-72
2021/07/26 01:33:43;;;;;;;;;28.75;23.50;;;;;19.40;100.00;100772.06;5087769;27;45336;-72
2021/07/26 01:36:10;;;;;;;;;23.25;17.75;;;;;19.30;100.00;100751.44;5091520;27;45391;-72
2021/07/26 01:38:35;;;;;;;;;25.75;19.00;;;;;19.24;100.00;100750.81;5089855;27;45400;-71
2021/07/26 01:41:03;;;;;;;;;18.50;17.75;;;;;19.35;100.00;100771.44;5085806;27;47160;-71
2021/07/26 01:43:33;;;;;;;;;13.25;11.75;;;;;19.27;100.00;100763.88;5096266;27;45688;-71
2021/07/26 01:46:22;;;;;;;;;17.00;15.50;;;;;19.25;100.00;100779.00;5099049;27;45414;-71
2021/07/26 01:48:59;;;;;;;;;18.25;15.50;;;;;19.21;100.00;100777.41;5098902;27;45491;-71
2021/07/26 01:51:37;;;;;;;;;17.75;15.75;;;;;19.18;100.00;100780.22;5085679;27;45655;-72
2021/07/26 01:54:02;;;;;;;;;20.50;15.00;;;;;19.09;100.00;100771.88;5100040;27;45664;-71
2021/07/26 01:56:28;;;;;;;;;19.00;17.25;;;;;19.11;100.00;100777.94;5099988;27;45816;-79
2021/07/26 01:58:54;;;;;;;;;19.25;18.25;;;;;19.01;100.00;100768.72;5100632;27;45303;-71
2021/07/26 02:01:19;;;;;;;;;18.25;17.50;;;;;19.08;100.00;100788.69;5100313;27;45558;-71
2021/07/26 02:03:44;;;;;;;;;16.00;14.75;;;;;19.03;100.00;100783.63;5099785;27;45340;-75
2021/07/26 02:06:10;;;;;;;;;17.00;16.00;;;;;18.98;100.00;100785.63;5099815;27;45438;-71
2021/07/26 02:08:35;;;;;;;;;13.50;13.25;;;;;19.02;100.00;100784.56;5099163;27;45804;-71
2021/07/26 02:11:00;;;;;;;;;17.50;15.75;;;;;19.05;100.00;100800.28;5099404;27;46283;-71
2021/07/26 02:13:26;;;;;;;;;18.50;16.50;;;;;18.98;100.00;100777.69;5099878;27;45240;-73
2021/07/26 02:15:51;;;;;;;;;16.50;15.25;;;;;18.98;100.00;100777.69;5099506;27;45772;-71
2021/07/26 02:18:16;;;;;;;;;12.75;11.25;;;;;19.02;100.00;100789.84;5099191;27;45313;-71
2021/07/26 02:20:42;;;;;;;;;15.00;13.25;;;;;19.05;100.00;100800.28;5099765;27;46322;-71
2021/07/26 02:23:07;;;;;;;;;15.00;13.75;;;;;19.03;100.00;100796.00;5099496;27;45358;-71
2021/07/26 02:25:32;;;;;;;;;18.25;15.00;;;;;19.04;100.00;100814.44;5099760;27;45729;-72
2021/07/26 02:27:58;;;;;;;;;20.00;16.00;;;;;19.03;100.00;100812.75;5098355;27;45497;-73
2021/07/26 02:30:23;;;;;;;;;17.25;14.25;;;;;19.04;100.00;100816.25;5099245;27;45448;-72
2021/07/26 02:32:49;;;;;;;;;18.50;16.50;;;;;19.02;100.00;100816.31;5098115;27;45457;-72
2021/07/26 02:35:14;;;;;;;;;17.00;15.50;;;;;19.01;100.00;100811.97;5099799;27;45337;-71
2021/07/26 02:37:39;;;;;;;;;17.25;14.75;;;;;18.97;100.00;100811.22;5099585;27;45420;-72
2021/07/26 02:40:06;;;;;;;;;18.00;16.75;;;;;18.85;100.00;100787.16;5098796;27;45495;-71
2021/07/26 02:42:31;;;;;;;;;17.00;16.00;;;;;19.01;100.00;100811.97;5099426;27;45742;-71
2021/07/26 02:44:56;;;;;;;;;15.50;14.75;;;;;18.95;100.00;100801.66;5099388;27;45351;-72
2021/07/26 02:47:22;;;;;;;;;19.75;17.00;;;;;19.00;100.00;100812.00;5099692;27;45411;-72
2021/07/26 02:49:47;;;;;;;;;15.75;14.75;;;;;18.94;100.00;100803.44;5090620;27;45370;-71
2021/07/26 02:52:12;;;;;;;;;17.50;15.00;;;;;18.96;100.00;100811.28;5099332;27;45817;-72
2021/07/26 02:54:38;;;;;;;;;18.50;16.50;;;;;18.82;100.00;100784.66;5099070;27;45461;-71
2021/07/26 02:57:03;;;;;;;;;17.25;14.25;;;;;18.91;100.00;100806.22;5091227;27;45409;-72
2021/07/26 02:59:29;;;;;;;;;14.00;13.00;;;;;18.88;100.00;100810.81;5097673;27;45544;-71
2021/07/26 03:01:54;;;;;;;;;16.75;14.50;;;;;18.83;100.00;100811.03;5098870;27;45451;-71
2021/07/26 03:04:19;;;;;;;;;15.75;15.00;;;;;18.79;100.00;100801.53;5099505;27;45860;-71
2021/07/26 03:06:45;;;;;;;;;10.00;9.00;;;;;18.79;100.00;100804.19;5085875;27;45333;-70
2021/07/26 03:09:10;;;;;;;;;15.50;13.75;;;;;18.76;100.00;100798.16;5092316;27;46407;-71
2021/07/26 03:11:36;;;;;;;;;18.00;15.00;;;;;18.80;100.00;100805.03;5089975;27;45401;-70
2021/07/26 03:14:03;;;;;;;;;19.00;16.75;;;;;18.84;100.00;100818.03;5098895;27;45650;-70
2021/07/26 03:16:28;;;;;;;;;18.00;13.00;;;;;18.78;100.00;100797.16;5099013;27;45372;-71
2021/07/26 03:18:54;;;;;;;;;15.75;13.00;;;;;18.79;100.00;100790.97;5098569;27;46440;-71
2021/07/26 03:21:19;;;;;;;;;18.25;14.00;;;;;18.85;100.00;100803.03;5098675;27;45162;-71
2021/07/26 03:23:45;;;;;;;;;20.00;13.25;;;;;18.76;100.00;100777.00;5098617;27;45467;-70
2021/07/26 03:26:10;;;;;;;;;12.50;12.50;;;;;18.87;100.00;100795.88;5084542;27;45454;-70
2021/07/26 03:28:36;;;;;;;;;19.50;15.75;;;;;18.91;100.00;100800.94;5098151;27;45951;-70
2021/07/26 03:31:02;;;;;;;;;20.50;16.00;;;;;18.98;100.00;100815.56;5098095;27;45367;-71
2021/07/26 03:33:28;;;;;;;;;12.75;12.00;;;;;18.90;100.00;100799.22;5098765;27;45407;-71
2021/07/26 03:35:53;;;;;;;;;16.00;15.00;;;;;19.01;100.00;100806.66;5097611;27;45466;-70
2021/07/26 03:38:22;;;;;;;;;16.75;14.50;;;;;19.02;100.00;100805.72;5091770;27;46206;-71
2021/07/26 03:40:48;;;;;;;;;17.00;15.00;;;;;19.07;100.00;100816.94;5090893;27;45612;-70
2021/07/26 03:43:14;;;;;;;;;15.00;13.25;;;;;18.97;100.00;100802.44;5098343;27;45362;-70
2021/07/26 03:45:39;;;;;;;;;17.00;14.75;;;;;19.06;100.00;100812.59;5087360;27;45449;-72
2021/07/26 03:48:05;;;;;;;;;16.50;14.75;;;;;19.04;100.00;100810.94;5095212;27;46524;-70
2021/07/26 03:50:31;;;;;;;;;14.25;14.25;;;;;18.99;100.00;100805.84;5098285;27;45356;-71
2021/07/26 03:52:57;;;;;;;;;14.75;14.25;;;;;18.99;100.00;100808.50;5098148;27;45450;-74
2021/07/26 03:55:23;;;;;;;;;19.75;16.50;;;;;19.06;100.00;100817.88;5098635;27;45367;-69
2021/07/26 03:57:51;;;;;;;;;18.00;16.25;;;;;19.06;100.00;100822.31;5098067;27;45455;-70
2021/07/26 04:00:19;;;;;;;;;17.75;15.25;;;;;19.03;100.00;100818.03;5079124;27;45278;-71
2021/07/26 04:05:30;;;;;;;;;14.50;13.00;;;;;19.07;100.00;100822.25;5098309;27;45257;-72
2021/07/26 04:08:01;;;;;;;;;17.25;16.50;;;;;18.99;100.00;100800.56;5085997;27;46352;-77
2021/07/26 04:10:26;;;;;;;;;17.25;14.75;;;;;19.02;100.00;100805.72;5090668;27;45436;-71
2021/07/26 04:12:53;;;;;;;;;15.00;14.00;;;;;19.06;100.00;100811.72;5087960;27;45285;-69
2021/07/26 04:15:18;;;;;;;;;16.00;14.25;;;;;19.03;100.00;100806.59;5077660;27;45313;-72
2021/07/26 04:17:44;;;;;;;;;21.00;12.50;;;;;19.08;100.00;100821.31;5085823;27;45369;-70
2021/07/26 04:20:10;;;;;;;;;14.75;13.50;;;;;19.05;100.00;100816.16;5097492;27;45318;-76
2021/07/26 04:22:35;;;;;;;;;14.75;14.25;;;;;19.01;100.00;100817.25;5092281;27;45404;-71
2021/07/26 04:25:01;;;;;;;;;17.50;15.00;;;;;19.04;100.00;100822.38;5097952;27;45539;-71
2021/07/26 04:27:26;;;;;;;;;21.00;18.25;;;;;19.11;100.00;100822.94;5097164;27;46195;-71
2021/07/26 04:29:54;;;;;;;;;14.75;13.00;;;;;19.14;100.00;100822.78;5097474;27;45412;-71
2021/07/26 04:32:19;;;;;;;;;14.25;12.75;;;;;19.11;100.00;100826.44;5083496;27;45382;-71
2021/07/26 04:34:44;;;;;;;;;13.75;12.75;;;;;19.13;100.00;100829.88;5088497;27;45383;-71
2021/07/26 04:37:10;;;;;;;;;14.25;12.25;;;;;19.11;100.00;100823.81;5091220;27;46489;-70
2021/07/26 04:39:35;;;;;;;;;12.50;12.00;;;;;19.15;100.00;100821.84;5097392;27;45349;-71
2021/07/26 04:42:00;;;;;;;;;15.25;14.00;;;;;19.18;100.00;100832.28;5097864;27;45567;-71
2021/07/26 04:44:26;;;;;;;;;17.00;14.00;;;;;19.05;100.00;100800.28;5097647;27;45573;-76
2021/07/26 04:46:51;;;;;;;;;16.50;14.00;;;;;19.21;100.00;100827.69;5097306;27;45366;-71
2021/07/26 04:49:16;;;;;;;;;14.25;12.00;;;;;19.28;100.00;100833.59;5096091;27;45557;-71
2021/07/26 04:51:42;;;;;;;;;14.25;12.25;;;;;19.28;100.00;100829.13;5097696;27;45469;-71
2021/07/26 04:54:07;;;;;;;;;14.25;12.00;;;;;19.27;100.00;100819.50;5097426;27;45422;-71
2021/07/26 04:56:33;;;;;;;;;22.25;19.00;;;;;19.33;100.00;100823.63;5096766;27;45367;-73
2021/07/26 04:58:58;;;;;;;;;17.75;16.00;;;;;19.43;100.00;100845.19;5096975;27;45184;-71
2021/07/26 05:01:23;;;;;;;;;17.25;12.75;;;;;19.47;100.00;100847.63;5097201;27;45434;-70
2021/07/26 05:03:49;;;;;;;;;16.50;13.25;;;;;19.46;100.00;100837.97;5082978;27;45450;-72
2021/07/26 05:06:14;;;;;;;;;13.00;11.75;;;;;19.46;100.00;100837.09;5097334;27;45488;-71
2021/07/26 05:08:39;;;;;;;;;14.50;11.75;;;;;19.52;100.00;100850.06;5096458;27;45350;-75
2021/07/26 05:11:05;;;;;;;;;12.00;10.50;;;;;19.51;100.00;100835.09;5097356;27;45268;-73
2021/07/26 05:13:30;;;;;;;;;12.50;12.00;;;;;19.49;100.00;100837.81;5082707;27;45442;-73
2021/07/26 05:15:55;;;;;;;;;10.75;10.25;;;;;19.56;100.00;100849.84;5096915;27;46520;-72
2021/07/26 05:18:21;;;;;;;;;12.00;11.50;;;;;19.53;100.00;100849.13;5083594;27;45309;-72
2021/07/26 05:20:46;;;;;;;;;12.25;11.75;;;;;19.53;100.00;100846.47;5093442;27;45424;-71
2021/07/26 05:23:12;;;;;;;;;13.00;10.75;;;;;19.54;100.00;100857.00;5092608;27;45569;-71
2021/07/26 05:25:45;;;;;;;;;12.50;11.00;;;;;19.51;100.00;100854.50;5094142;27;45477;-71
2021/07/26 05:28:11;;;;;;;;;11.50;9.75;;;;;19.51;100.00;100850.97;5090946;27;45627;-71
2021/07/26 05:30:38;;;;;;;;;12.25;11.00;;;;;19.51;100.00;100849.19;5093933;27;45279;-71
2021/07/26 05:33:04;;;;;;;;;11.75;10.00;;;;;19.56;100.00;100859.59;5083637;27;45397;-71
2021/07/26 05:35:30;;;;;;;;;11.00;9.00;;;;;19.58;100.00;100855.91;5095160;27;45422;-71
2021/07/26 05:37:56;;;;;;;;;10.00;9.25;;;;;19.51;100.00;100843.91;5096726;27;45296;-77
2021/07/26 05:40:21;;;;;;;;;10.00;9.75;;;;;19.62;100.00;100851.31;5087438;27;45358;-70
2021/07/26 05:42:47;;;;;;;;;15.00;12.25;;;;;19.72;100.00;100867.63;5096692;27;45435;-71
2021/07/26 05:45:12;;;;;;;;;10.75;9.75;;;;;19.69;100.00;100858.06;5096339;27;46345;-72
2021/07/26 05:47:38;;;;;;;;;11.25;9.00;;;;;19.73;100.00;100850.81;5089429;27;45499;-72
2021/07/26 05:50:05;;;;;;;;;11.00;9.25;;;;;19.67;100.00;100840.50;5084566;27;45419;-80
2021/07/26 05:52:30;;;;;;;;;11.50;9.75;;;;;19.80;100.00;100847.75;5103138;27;45512;-85
2021/07/26 05:54:55;;;;;;;;;10.25;9.25;;;;;19.78;100.00;100839.03;5083899;27;45667;-82
2021/07/26 05:57:22;;;;;;;;;14.00;10.00;;;;;19.97;100.00;100852.19;5096747;27;45389;-80
2021/07/26 05:59:51;;;;;;;;;15.00;12.25;;;;;20.13;100.00;100857.53;5096560;27;45386;-78
2021/07/26 06:02:16;;;;;;;;;11.25;11.25;;;;;20.10;100.00;100832.06;5096250;27;45439;-78
2021/07/26 06:04:42;;;;;;;;;9.50;9.50;;;;;20.20;100.00;100835.09;5096564;27;45331;-78
2021/07/26 06:07:07;;;;;;;;;12.25;11.50;;;;;20.41;100.00;100849.91;5091786;27;45416;-77
2021/07/26 06:09:32;;;;;;;;;10.50;9.75;;;;;20.41;100.00;100835.78;5082932;27;45407;-78
2021/07/26 06:11:58;;;;;;;;;14.50;12.75;;;;;20.39;100.00;100841.16;5091880;27;45421;-82
2021/07/26 06:14:24;;;;;;;;;12.00;10.00;;;;;20.47;100.00;100848.72;5094036;27;47426;-80
2021/07/26 06:16:52;;;;;;;;;10.75;10.25;;;;;20.60;100.00;100863.06;5095707;27;45706;-82
2021/07/26 06:19:18;;;;;;;;;12.00;10.25;;;;;20.72;100.00;100869.47;5092238;27;45402;-81
2021/07/26 06:21:55;;;;;;;;;11.25;10.25;;;;;20.83;100.00;100860.94;5096529;27;45410;-81
2021/07/26 06:24:21;;;;;;;;;14.75;11.75;;;;;20.66;100.00;100835.31;5091068;27;47254;-80
2021/07/26 06:26:47;;;;;;;;;10.25;9.25;;;;;20.77;100.00;100870.06;5096532;27;45520;-81
2021/07/26 06:29:13;;;;;;;;;10.50;9.75;;;;;20.58;100.00;100850.78;5091869;27;45470;-83
2021/07/26 06:31:40;;;;;;;;;10.50;10.25;;;;;20.45;100.00;100851.44;5091894;27;45359;-81
2021/07/26 06:34:06;;;;;;;;;15.00;14.00;;;;;20.47;100.00;100862.84;5094700;27;46518;-81
2021/07/26 06:36:32;;;;;;;;;14.00;12.50;;;;;20.52;100.00;100867.88;5094620;27;45339;-81
2021/07/26 06:38:58;;;;;;;;;14.25;13.00;;;;;20.53;100.00;100869.59;5094424;27;45498;-80
2021/07/26 06:41:23;;;;;;;;;14.25;12.25;;;;;20.57;100.00;100872.94;5091539;27;45452;-80
2021/07/26 06:43:52;;;;;;;;;11.75;10.75;;;;;20.43;100.00;100855.13;5098970;27;46655;-81
2021/07/26 06:46:18;;;;;;;;;12.75;12.00;;;;;20.42;100.00;100864.88;5094570;27;45605;-81
2021/07/26 06:48:43;;;;;;;;;12.00;11.50;;;;;20.45;100.00;100872.69;5094710;27;45471;-80
2021/07/26 06:51:09;;;;;;;;;14.75;12.00;;;;;20.27;100.00;100856.84;5093757;27;45511;-82
2021/07/26 06:53:34;;;;;;;;;12.50;10.75;;;;;20.35;100.00;100884.66;5106627;27;48187;-81
2021/07/26 06:56:07;;;;;;;;;9.50;9.50;;;;;20.31;100.00;100885.75;5093157;27;45293;-81
2021/07/26 06:58:33;;;;;;;;;15.00;11.50;;;;;20.23;100.00;100882.66;5080539;27;45430;-81
2021/07/26 07:01:11;;;;;;;;;15.00;11.00;;;;;20.06;100.00;100864.97;5078989;27;45441;-81
2021/07/26 07:03:36;;;;;;;;;10.00;8.75;;;;;20.01;100.00;100868.81;5096101;27;47201;-80
2021/07/26 07:06:08;;;;;;;;;10.00;9.00;;;;;19.95;100.00;100869.97;5101914;27;45504;-79
2021/07/26 07:08:34;;;;;;;;;10.25;9.00;;;;;20.05;100.00;100896.84;5104235;27;45421;-80
2021/07/26 07:11:04;;;;;;;;;12.00;11.75;;;;;20.03;100.00;100896.94;5102344;27;45311;-79
2021/07/26 07:13:30;;;;;;;;;14.00;11.75;;;;;20.00;100.00;100899.75;5099358;27;45399;-80
2021/07/26 07:15:55;;;;;;;;;14.25;9.25;;;;;19.94;100.00;100896.56;5098744;27;45316;-80
2021/07/26 07:18:20;;;;;;;;;11.00;10.50;;;;;19.89;100.00;100900.28;5099125;27;45269;-81
2021/07/26 07:20:46;;;;;;;;;13.50;11.75;;;;;19.81;100.00;100891.88;5098935;27;45397;-79
2021/07/26 07:23:11;;;;;;;;;12.75;12.00;;;;;19.94;100.00;100902.72;5099190;27;45663;-79
2021/07/26 07:25:36;;;;;;;;;12.50;11.00;;;;;19.87;100.00;100880.09;5097628;27;45308;-79
2021/07/26 07:28:02;;;;;;;;;12.25;11.00;;;;;20.04;100.00;100909.25;5098775;27;45349;-78
2021/07/26 07:30:27;;;;;;;;;14.50;13.50;;;;;20.02;100.00;100903.19;5095541;27;45529;-79
2021/07/26 07:32:53;;;;;;;;;18.50;14.50;;;;;20.08;100.00;100910.81;5098982;27;45756;-79
2021/07/26 07:35:18;;;;;;;;;16.50;13.50;;;;;20.09;100.00;100915.16;5097969;27;45508;-78
2021/07/26 07:37:43;;;;;;;;;15.50;12.25;;;;;20.11;100.00;100902.69;5098425;27;45386;-79
2021/07/26 07:40:09;;;;;;;;;15.00;14.00;;;;;20.13;100.00;100890.22;5088017;27;45354;-80
2021/07/26 07:42:36;;;;;;;;;17.25;14.75;;;;;20.32;100.00;100902.53;5097816;27;45522;-78
2021/07/26 07:45:01;;;;;;;;;17.50;15.25;;;;;20.47;100.00;100923.00;5098202;27;45410;-77
2021/07/26 07:47:27;;;;;;;;;16.75;15.00;;;;;20.57;100.00;100923.34;5097450;27;46021;-78
2021/07/26 07:49:53;;;;;;;;;16.75;15.50;;;;;20.54;100.00;100902.28;5098181;27;45485;-78
2021/07/26 07:52:18;;;;;;;;;19.50;17.00;;;;;20.76;100.00;100919.63;5097967;27;45563;-78
2021/07/26 07:54:43;;;;;;;;;18.75;16.00;;;;;20.72;100.00;100901.31;5097695;27;45457;-79
2021/07/26 07:57:09;;;;;;;;;15.00;13.75;;;;;20.82;100.00;100901.66;5098225;27;45830;-79
2021/07/26 07:59:34;;;;;;;;;13.75;12.50;;;;;20.98;100.00;100902.53;5098165;27;45412;-79
2021/07/26 08:02:04;;;;;;;;;15.00;12.75;;;;;21.19;100.00;100905.81;5097416;27;45488;-80
2021/07/26 08:04:30;;;;;;;;;16.50;14.50;;;;;21.62;100.00;100918.44;5086854;27;45506;-79
2021/07/26 08:06:56;;;;;;;;;19.00;16.50;;;;;22.03;100.00;100912.50;5091488;27;45391;-79
2021/07/26 08:09:21;;;;;;;;;23.75;18.50;;;;;22.27;100.00;100915.53;5098658;27;45412;-78
2021/07/26 08:11:46;;;;;;;;;19.50;17.00;;;;;22.27;100.00;100907.56;5097097;27;45453;-79
2021/07/26 08:14:12;;;;;;;;;18.25;16.25;;;;;22.18;100.00;100908.97;5097859;27;45321;-77
2021/07/26 08:16:37;;;;;;;;;14.75;14.25;;;;;22.02;100.00;100911.66;5097951;27;45361;-78
2021/07/26 08:19:02;;;;;;;;;15.50;14.00;;;;;22.05;100.00;100915.97;5097873;27;45330;-79
2021/07/26 08:21:28;;;;;;;;;15.75;12.50;;;;;22.00;100.00;100923.31;5087952;27;47132;-79
2021/07/26 08:23:53;;;;;;;;;13.50;11.25;;;;;22.01;100.00;100933.00;5097726;27;45367;-79
2021/07/26 08:26:20;;;;;;;;;13.75;12.50;;;;;22.01;100.00;100925.03;5096673;27;45396;-78
2021/07/26 08:28:45;;;;;;;;;16.75;13.25;;;;;22.14;100.00;100926.03;5095927;27;45375;-78
2021/07/26 08:31:11;;;;;;;;;14.00;13.00;;;;;22.23;100.00;100929.97;5097521;27;46459;-78
2021/07/26 08:33:36;;;;;;;;;18.00;14.25;;;;;22.22;100.00;100930.94;5097118;27;45361;-78
2021/07/26 08:36:01;;;;;;;;;12.50;11.75;;;;;22.15;100.00;100929.56;5096923;27;45884;-79
2021/07/26 08:38:27;;;;;;;;;12.25;11.50;;;;;22.10;100.00;100916.53;5096657;27;45345;-80
2021/07/26 08:40:52;;;;;;;;;16.00;14.75;;;;;22.07;100.00;100926.50;5097186;27;46232;-78
2021/07/26 08:43:18;;;;;;;;;11.75;11.50;;;;;22.08;100.00;100923.75;5097675;27;45377;-79
2021/07/26 08:45:44;;;;;;;;;14.00;11.25;;;;;22.03;100.00;100912.50;5097366;27;45276;-78
2021/07/26 08:48:14;;;;;;;;;16.50;14.25;;;;;22.23;100.00;100927.31;5097412;27;45364;-77
2021/07/26 08:50:42;;;;;;;;;11.00;9.25;;;;;22.45;100.00;100949.03;5097273;27;46257;-77
2021/07/26 08:53:08;;;;;;;;;15.50;12.00;;;;;22.59;100.00;100941.03;5092862;27;45570;-77
2021/07/26 08:55:35;;;;;;;;;11.75;11.75;;;;;22.56;100.00;100921.75;5096516;27;45465;-78
2021/07/26 08:58:01;;;;;;;;;13.00;11.75;;;;;22.61;100.00;100941.78;5090697;27;45451;-76
2021/07/26 09:00:27;;;;;;;;;13.25;13.00;;;;;22.44;100.00;100946.47;5097183;27;46909;-81
2021/07/26 09:02:53;;;;;;;;;13.25;12.50;;;;;22.36;100.00;100946.91;5096900;27;45509;-76
2021/07/26 09:05:19;;;;;;;;;15.00;14.75;;;;;22.32;100.00;100948.03;5097206;27;45322;-77
2021/07/26 09:07:46;;;;;;;;;18.75;15.00;;;;;22.40;100.00;100959.06;5096839;27;45426;-75
2021/07/26 09:10:20;;;;;;;;;16.25;15.25;;;;;22.45;100.00;100956.16;5090637;27;47022;-76
2021/07/26 09:12:48;;;;;;;;;16.00;15.25;;;;;22.34;100.00;100955.91;5087891;27;45291;-77
2021/07/26 09:15:17;;;;;;;;;16.00;13.75;;;;;22.21;100.00;100959.31;5092137;27;45393;-78
2021/07/26 09:17:44;;;;;;;;;15.50;13.75;;;;;22.14;100.00;100965.94;5097041;27;45395;-77
2021/07/26 09:20:13;;;;;;;;;16.50;15.25;;;;;22.07;100.00;100948.63;5095093;27;48214;-76
2021/07/26 09:22:41;;;;;;;;;17.75;13.50;;;;;22.06;100.00;100962.03;5083165;27;45670;-76
2021/07/26 09:25:20;;;;;;;;;19.00;16.75;;;;;21.91;100.00;100966.38;5096502;27;45493;-76
2021/07/26 09:27:57;;;;;;;;;16.00;15.00;;;;;21.79;100.00;100975.09;5097118;27;45261;-77
2021/07/26 09:30:23;;;;;;;;;14.00;13.25;;;;;21.67;100.00;100977.47;5095395;27;47242;-80
2021/07/26 09:32:49;;;;;;;;;12.00;12.00;;;;;21.62;100.00;100979.53;5096703;27;45415;-76
2021/07/26 09:35:15;;;;;;;;;19.00;16.00;;;;;21.70;100.00;100979.09;5096728;27;45374;-76
2021/07/26 09:37:41;;;;;;;;;17.50;17.25;;;;;21.90;100.00;100972.66;5096735;27;45461;-77
2021/07/26 09:40:20;;;;;;;;;15.25;12.50;;;;;22.18;100.00;100967.50;5096006;27;45489;-77
2021/07/26 09:42:46;;;;;;;;;17.25;16.25;;;;;22.41;100.00;100963.47;5092381;27;45271;-77
2021/07/26 09:45:25;;;;;;;;;19.75;17.75;;;;;22.58;100.00;100965.09;5086387;27;45318;-76
2021/07/26 09:48:08;;;;;;;;;16.50;15.50;;;;;22.72;100.00;100954.47;5096848;27;45485;-76
2021/07/26 09:50:37;;;;;;;;;20.50;18.00;;;;;22.84;100.00;100964.38;5095547;27;46915;-77
2021/07/26 09:53:13;;;;;;;;;19.25;15.50;;;;;22.78;100.00;100950.56;5096545;27;45481;-77
2021/07/26 09:55:41;;;;;;;;;20.00;19.50;;;;;22.65;100.00;100931.84;5096052;27;45518;-76
2021/07/26 09:58:08;;;;;;;;;17.50;16.25;;;;;22.82;100.00;100960.94;5092077;27;45359;-77
2021/07/26 10:00:35;;;;;;;;;15.00;14.25;;;;;22.91;100.00;100967.53;5096602;27;46612;-78
2021/07/26 10:03:01;;;;;;;;;19.75;18.00;;;;;22.90;100.00;100966.69;5095881;27;45246;-77
2021/07/26 10:05:27;;;;;;;;;23.00;21.00;;;;;23.03;100.00;100963.25;5096297;27;45406;-77
2021/07/26 10:07:54;;;;;;;;;17.00;16.00;;;;;23.18;100.00;100963.13;5099709;27;45437;-77
2021/07/26 10:10:21;;;;;;;;;20.00;18.25;;;;;23.19;100.00;100972.84;5098721;27;46266;-77
2021/07/26 10:12:48;;;;;;;;;14.50;12.50;;;;;23.15;100.00;100949.16;5090824;27;45322;-76
2021/07/26 10:15:14;;;;;;;;;18.75;17.75;;;;;23.74;100.00;100963.97;5110605;27;45426;-76
2021/07/26 10:17:40;;;;;;;;;19.25;17.25;;;;;25.19;100.00;100962.06;5099786;27;45593;-76
2021/07/26 10:20:07;;;;;;;;;18.75;14.25;;;;;25.86;100.00;100957.16;5099413;27;45396;-77
2021/07/26 10:22:34;;;;;;;;;21.50;18.75;;;;;25.82;100.00;100953.00;5099252;27;45438;-78
2021/07/26 10:25:07;;;;;;;;;18.25;17.75;;;;;26.07;100.00;100953.84;5087659;27;45707;-78
2021/07/26 10:27:36;;;;;;;;;16.75;15.50;;;;;26.22;100.00;100956.19;5098151;27;45447;-79
2021/07/26 10:30:03;;;;;;;;;9.75;9.00;;;;;25.72;100.00;100968.00;5089982;27;46274;-78
2021/07/26 10:32:38;;;;;;;;;15.75;15.00;;;;;24.86;100.00;100953.72;5098031;27;45667;-78
2021/07/26 10:35:12;;;;;;;;;18.00;15.00;;;;;24.33;100.00;100960.97;5099552;27;45364;-77
2021/07/26 10:37:41;;;;;;;;;15.50;13.00;;;;;24.25;100.00;100966.81;5098920;27;45498;-76
2021/07/26 10:40:25;;;;;;;;;14.50;14.25;;;;;25.72;100.00;100959.13;5099171;27;45558;-79
2021/07/26 10:42:52;;;;;;;;;14.00;13.25;;;;;26.71;100.00;100948.91;5098875;27;45403;-78
2021/07/26 10:45:35;;;;;;;;;14.50;14.00;;;;;27.15;100.00;100956.09;5099682;27;45401;-78
2021/07/26 10:48:22;;;;;;;;;13.50;13.00;;;;;26.49;100.00;100963.97;5096395;27;45573;-79
2021/07/26 10:50:52;;;;;;;;;14.50;13.25;;;;;25.59;100.00;100967.19;5098605;27;46203;-77
2021/07/26 10:53:33;;;;;;;;;12.25;11.75;;;;;24.89;100.00;100980.22;5085775;27;45652;-78
2021/07/26 10:55:58;;;;;;;;;21.50;18.50;;;;;24.49;100.00;100971.47;5098917;27;45531;-78
2021/07/26 10:58:39;;;;;;;;;12.25;11.25;;;;;24.33;100.00;100971.66;5084968;27;45620;-77
2021/07/26 11:01:19;;;;;;;;;9.00;7.75;;;;;24.52;100.00;100972.13;5091833;27;45548;-77
2021/07/26 11:03:47;;;;;;;;;11.50;10.75;;;;;26.05;100.00;100950.44;5097768;27;45446;-77